Wetterdaten: Woche 12.06.23 - 18.06.23 (KW24)
Datum Zeit Temp. Aussen Temp. o. S. Temp +5cm Feuchte Auss Luftdruck Regen Sonnenschein Regendauer Solar Windben Empfang
12.06.2023 00:00 20,9 C 19,2 C 16,5 C 65 % 1015,5 hPa 0,0 l/m 0,00 h 0,00 h 0 W/m 1,0 km/h (0 Bft) 97,55 %
12.06.2023 01:00 19,7 C 18,2 C 15,5 C 67 % 1015,7 hPa 0,0 l/m 0,00 h 0,00 h 0 W/m 1,1 km/h (0 Bft) 98,46 %
12.06.2023 02:00 18,8 C 17,1 C 14,5 C 70 % 1015,7 hPa 0,0 l/m 0,00 h 0,00 h 0 W/m 0,0 km/h (0 Bft) 96,67 %
12.06.2023 03:00 17,7 C 16,2 C 13,4 C 73 % 1015,6 hPa 0,0 l/m 0,00 h 0,00 h 0 W/m 0,1 km/h (0 Bft) 98,82 %
12.06.2023 04:00 16,9 C 15,9 C 13,0 C 73 % 1015,5 hPa 0,0 l/m 0,00 h 0,00 h 0 W/m 1,9 km/h (1 Bft) 97,64 %
12.06.2023 05:00 16,9 C 16,1 C 13,1 C 70 % 1015,6 hPa 0,0 l/m 0,00 h 0,00 h 9 W/m 4,6 km/h (1 Bft) 96,20 %
12.06.2023 06:00 16,8 C 16,1 C 12,9 C 72 % 1015,7 hPa 0,0 l/m 0,00 h 0,00 h 23 W/m 2,4 km/h (1 Bft) 98,93 %
12.06.2023 07:00 17,6 C 17,6 C 14,2 C 74 % 1015,8 hPa 0,0 l/m 0,33 h 0,00 h 106 W/m 2,5 km/h (1 Bft) 97,16 %
12.06.2023 08:00 21,8 C 26,2 C 18,7 C 65 % 1015,9 hPa 0,0 l/m 1,00 h 0,00 h 375 W/m 4,1 km/h (1 Bft) 97,99 %
12.06.2023 09:00 25,5 C 30,1 C 23,7 C 53 % 1015,8 hPa 0,0 l/m 1,00 h 0,00 h 554 W/m 8,4 km/h (2 Bft) 98,46 %
12.06.2023 10:00 26,7 C 28,3 C 25,7 C 50 % 1015,6 hPa 0,0 l/m 1,00 h 0,00 h 643 W/m 10,1 km/h (2 Bft) 96,47 %
12.06.2023 11:00 27,8 C 30,1 C 26,1 C 48 % 1015,5 hPa 0,0 l/m 1,00 h 0,00 h 787 W/m 9,9 km/h (2 Bft) 97,58 %
12.06.2023 12:00 29,6 C 33,1 C 30,8 C 45 % 1015,3 hPa 0,0 l/m 1,00 h 0,00 h 879 W/m 10,8 km/h (2 Bft) 99,39 %
12.06.2023 13:00 30,8 C 34,5 C 33,3 C 42 % 1015,0 hPa 0,0 l/m 0,90 h 0,00 h 826 W/m 11,0 km/h (2 Bft) 95,56 %
12.06.2023 14:00 30,8 C 34,7 C 27,4 C 41 % 1014,7 hPa 0,0 l/m 0,73 h 0,00 h 712 W/m 9,1 km/h (2 Bft) 99,69 %
12.06.2023 15:00 32,1 C 34,5 C 27,1 C 39 % 1014,4 hPa 0,0 l/m 0,60 h 0,00 h 615 W/m 7,9 km/h (2 Bft) 96,73 %
12.06.2023 16:00 29,7 C 30,6 C 25,3 C 46 % 1014,2 hPa 0,0 l/m 0,07 h 0,00 h 299 W/m 8,3 km/h (2 Bft) 97,96 %
12.06.2023 17:00 30,0 C 31,8 C 26,0 C 44 % 1013,9 hPa 0,0 l/m 0,50 h 0,00 h 398 W/m 9,4 km/h (2 Bft) 98,36 %
12.06.2023 18:00 29,2 C 31,8 C 25,6 C 44 % 1013,6 hPa 0,0 l/m 0,80 h 0,00 h 351 W/m 11,5 km/h (2 Bft) 96,07 %
12.06.2023 19:00 27,9 C 28,3 C 23,7 C 43 % 1013,5 hPa 0,0 l/m 0,47 h 0,00 h 163 W/m 12,0 km/h (2 Bft) 97,25 %
12.06.2023 20:00 25,9 C 25,0 C 21,4 C 47 % 1013,4 hPa 0,0 l/m 0,00 h 0,00 h 46 W/m 8,0 km/h (2 Bft) 98,93 %
12.06.2023 21:00 24,1 C 22,9 C 19,8 C 52 % 1013,5 hPa 0,0 l/m 0,00 h 0,00 h 15 W/m 6,1 km/h (2 Bft) 95,95 %
12.06.2023 22:00 22,5 C 21,1 C 18,1 C 55 % 1014,0 hPa 0,0 l/m 0,00 h 0,00 h 0 W/m 4,3 km/h (1 Bft) 97,48 %
12.06.2023 23:00 21,4 C 20,0 C 17,1 C 58 % 1014,1 hPa 0,0 l/m 0,00 h 0,00 h 0 W/m 2,9 km/h (1 Bft) 97,71 %
13.06.2023 00:00 20,1 C 18,6 C 15,8 C 61 % 1014,2 hPa 0,0 l/m 0,00 h 0,00 h 0 W/m 0,0 km/h (0 Bft) 97,04 %
13.06.2023 01:00 19,0 C 17,8 C 14,8 C 64 % 1014,3 hPa 0,0 l/m 0,00 h 0,00 h 0 W/m 0,0 km/h (0 Bft) 98,28 %
13.06.2023 02:00 18,3 C 17,0 C 14,0 C 64 % 1014,3 hPa 0,0 l/m 0,00 h 0,00 h 0 W/m 0,0 km/h (0 Bft) 97,65 %
13.06.2023 03:00 17,4 C 16,1 C 13,1 C 67 % 1014,0 hPa 0,0 l/m 0,00 h 0,00 h 0 W/m 0,0 km/h (0 Bft) 96,27 %
13.06.2023 04:00 16,7 C 15,7 C 12,8 C 66 % 1013,9 hPa 0,0 l/m 0,00 h 0,00 h 0 W/m 0,0 km/h (0 Bft) 97,78 %
13.06.2023 05:00 16,3 C 15,1 C 12,3 C 68 % 1013,9 hPa 0,0 l/m 0,00 h 0,00 h 10 W/m 0,7 km/h (0 Bft) 98,13 %
13.06.2023 06:00 15,9 C 15,3 C 12,1 C 72 % 1014,0 hPa 0,0 l/m 0,00 h 0,00 h 24 W/m 4,2 km/h (1 Bft) 95,92 %
13.06.2023 07:00 16,8 C 16,6 C 13,2 C 74 % 1014,3 hPa 0,0 l/m 0,33 h 0,00 h 109 W/m 4,3 km/h (1 Bft) 98,36 %
13.06.2023 08:00 20,4 C 24,9 C 17,3 C 64 % 1014,5 hPa 0,0 l/m 1,00 h 0,00 h 398 W/m 6,5 km/h (2 Bft) 97,08 %
13.06.2023 09:00 23,8 C 28,2 C 22,3 C 51 % 1014,7 hPa 0,0 l/m 1,00 h 0,00 h 565 W/m 10,2 km/h (2 Bft) 96,04 %
13.06.2023 10:00 25,3 C 27,2 C 25,3 C 47 % 1014,7 hPa 0,0 l/m 1,00 h 0,00 h 714 W/m 11,7 km/h (2 Bft) 99,11 %
13.06.2023 11:00 26,7 C 29,1 C 25,1 C 43 % 1014,4 hPa 0,0 l/m 1,00 h 0,00 h 830 W/m 10,0 km/h (2 Bft) 97,30 %
13.06.2023 12:00 28,0 C 32,5 C 29,9 C 42 % 1014,0 hPa 0,0 l/m 1,00 h 0,00 h 910 W/m 10,8 km/h (2 Bft) 96,99 %
13.06.2023 13:00 29,1 C 33,8 C 30,8 C 41 % 1013,5 hPa 0,0 l/m 0,93 h 0,00 h 912 W/m 10,0 km/h (2 Bft) 98,65 %
13.06.2023 14:00 28,9 C 34,2 C 24,7 C 41 % 1013,2 hPa 0,0 l/m 0,90 h 0,00 h 860 W/m 11,5 km/h (2 Bft) 96,22 %
13.06.2023 15:00 29,4 C 34,2 C 24,2 C 40 % 1012,8 hPa 0,0 l/m 1,00 h 0,00 h 843 W/m 13,0 km/h (3 Bft) 97,97 %
13.06.2023 16:00 29,4 C 33,8 C 24,8 C 40 % 1012,5 hPa 0,0 l/m 1,00 h 0,00 h 742 W/m 11,8 km/h (2 Bft) 97,02 %
13.06.2023 17:00 30,0 C 34,6 C 26,2 C 40 % 1012,2 hPa 0,0 l/m 1,00 h 0,00 h 598 W/m 11,1 km/h (2 Bft) 96,23 %
13.06.2023 18:00 29,4 C 34,1 C 26,1 C 40 % 1012,0 hPa 0,0 l/m 1,00 h 0,00 h 430 W/m 10,3 km/h (2 Bft) 96,74 %
13.06.2023 19:00 27,5 C 29,6 C 23,2 C 43 % 1012,1 hPa 0,0 l/m 1,00 h 0,00 h 258 W/m 10,1 km/h (2 Bft) 97,19 %
13.06.2023 20:00 24,9 C 24,2 C 21,1 C 50 % 1012,3 hPa 0,0 l/m 0,00 h 0,00 h 42 W/m 8,4 km/h (2 Bft) 98,53 %
13.06.2023 21:00 23,2 C 21,9 C 18,4 C 55 % 1012,6 hPa 0,0 l/m 0,00 h 0,00 h 15 W/m 3,6 km/h (1 Bft) 94,59 %
13.06.2023 22:00 21,6 C 20,3 C 17,1 C 58 % 1013,3 hPa 0,0 l/m 0,00 h 0,00 h 0 W/m 4,4 km/h (1 Bft) 98,08 %
13.06.2023 23:00 20,3 C 19,0 C 16,1 C 60 % 1013,6 hPa 0,0 l/m 0,00 h 0,00 h 0 W/m 2,9 km/h (1 Bft) 98,22 %
14.06.2023 00:00 19,4 C 17,8 C 15,1 C 64 % 1013,8 hPa 0,0 l/m 0,00 h 0,00 h 0 W/m 0,7 km/h (0 Bft) 95,56 %
14.06.2023 01:00 18,1 C 16,9 C 14,0 C 67 % 1014,0 hPa 0,0 l/m 0,00 h 0,00 h 0 W/m 1,1 km/h (0 Bft) 98,47 %
14.06.2023 02:00 17,7 C 16,4 C 13,4 C 68 % 1014,3 hPa 0,0 l/m 0,00 h 0,00 h 0 W/m 0,2 km/h (0 Bft) 97,03 %
14.06.2023 03:00 17,2 C 16,3 C 13,1 C 67 % 1014,4 hPa 0,0 l/m 0,00 h 0,00 h 0 W/m 3,5 km/h (1 Bft) 98,59 %
14.06.2023 04:00 16,5 C 15,2 C 12,4 C 70 % 1014,5 hPa 0,0 l/m 0,00 h 0,00 h 0 W/m 2,4 km/h (1 Bft) 96,03 %
14.06.2023 05:00 15,6 C 14,4 C 11,5 C 74 % 1014,9 hPa 0,0 l/m 0,00 h 0,00 h 10 W/m 1,5 km/h (1 Bft) 96,72 %
14.06.2023 06:00 15,2 C 14,6 C 11,7 C 76 % 1015,4 hPa 0,0 l/m 0,00 h 0,00 h 23 W/m 3,1 km/h (1 Bft) 98,37 %
14.06.2023 07:00 16,3 C 16,1 C 12,6 C 73 % 1015,9 hPa 0,0 l/m 0,30 h 0,00 h 110 W/m 6,8 km/h (2 Bft) 95,20 %
14.06.2023 08:00 19,8 C 24,5 C 16,4 C 64 % 1016,3 hPa 0,0 l/m 1,00 h 0,00 h 403 W/m 6,7 km/h (2 Bft) 98,93 %
14.06.2023 09:00 23,1 C 29,1 C 20,7 C 52 % 1016,6 hPa 0,0 l/m 1,00 h 0,00 h 582 W/m 11,6 km/h (2 Bft) 97,72 %
14.06.2023 10:00 24,1 C 27,4 C 23,2 C 48 % 1016,7 hPa 0,0 l/m 1,00 h 0,00 h 732 W/m 11,7 km/h (2 Bft) 97,15 %
14.06.2023 11:00 24,3 C 27,3 C 22,2 C 48 % 1016,8 hPa 0,0 l/m 1,00 h 0,00 h 840 W/m 16,2 km/h (3 Bft) 97,58 %
14.06.2023 12:00 24,9 C 29,9 C 26,6 C 47 % 1016,9 hPa 0,0 l/m 1,00 h 0,00 h 913 W/m 15,0 km/h (3 Bft) 97,09 %
14.06.2023 13:00 25,7 C 31,6 C 28,3 C 45 % 1016,8 hPa 0,0 l/m 1,00 h 0,00 h 946 W/m 14,8 km/h (3 Bft) 99,36 %
14.06.2023 14:00 25,8 C 31,7 C 22,0 C 46 % 1016,6 hPa 0,0 l/m 1,00 h 0,00 h 923 W/m 15,5 km/h (3 Bft) 94,61 %
14.06.2023 15:00 26,2 C 31,2 C 21,8 C 47 % 1016,5 hPa 0,0 l/m 1,00 h 0,00 h 857 W/m 14,5 km/h (3 Bft) 99,02 %
14.06.2023 16:00 26,8 C 31,8 C 22,7 C 46 % 1016,4 hPa 0,0 l/m 1,00 h 0,00 h 745 W/m 13,2 km/h (3 Bft) 97,75 %
14.06.2023 17:00 26,9 C 31,4 C 23,6 C 46 % 1016,4 hPa 0,0 l/m 1,00 h 0,00 h 606 W/m 15,8 km/h (3 Bft) 96,58 %
14.06.2023 18:00 26,4 C 30,8 C 23,3 C 46 % 1016,4 hPa 0,0 l/m 0,97 h 0,00 h 439 W/m 15,3 km/h (3 Bft) 98,69 %
14.06.2023 19:00 25,2 C 27,2 C 21,2 C 47 % 1016,6 hPa 0,0 l/m 1,00 h 0,00 h 263 W/m 13,3 km/h (3 Bft) 97,57 %
14.06.2023 20:00 23,4 C 22,6 C 19,1 C 50 % 1017,0 hPa 0,0 l/m 0,00 h 0,00 h 37 W/m 10,1 km/h (2 Bft) 98,09 %
14.06.2023 21:00 21,9 C 20,9 C 17,6 C 55 % 1017,4 hPa 0,0 l/m 0,00 h 0,00 h 13 W/m 6,2 km/h (2 Bft) 96,84 %
14.06.2023 22:00 20,2 C 19,0 C 16,1 C 62 % 1017,9 hPa 0,0 l/m 0,00 h 0,00 h 0 W/m 3,0 km/h (1 Bft) 97,00 %
14.06.2023 23:00 19,0 C 17,8 C 15,0 C 66 % 1018,3 hPa 0,0 l/m 0,00 h 0,00 h 0 W/m 2,8 km/h (1 Bft) 98,02 %
15.06.2023 00:00 18,0 C 16,6 C 13,9 C 70 % 1018,3 hPa 0,0 l/m 0,00 h 0,00 h 0 W/m 0,7 km/h (0 Bft) 98,74 %
15.06.2023 01:00 17,1 C 15,9 C 13,1 C 73 % 1018,4 hPa 0,0 l/m 0,00 h 0,00 h 0 W/m 0,5 km/h (0 Bft) 95,84 %
15.06.2023 02:00 16,5 C 15,6 C 12,8 C 75 % 1018,5 hPa 0,0 l/m 0,00 h 0,00 h 0 W/m 2,4 km/h (1 Bft) 97,89 %
15.06.2023 03:00 16,2 C 15,2 C 12,4 C 76 % 1018,6 hPa 0,0 l/m 0,00 h 0,00 h 0 W/m 1,1 km/h (0 Bft) 98,58 %
15.06.2023 04:00 15,5 C 14,2 C 11,5 C 79 % 1018,8 hPa 0,0 l/m 0,00 h 0,00 h 0 W/m 0,2 km/h (0 Bft) 96,34 %
15.06.2023 05:00 14,8 C 13,9 C 11,1 C 82 % 1018,9 hPa 0,0 l/m 0,00 h 0,00 h 9 W/m 0,0 km/h (0 Bft) 97,42 %
15.06.2023 06:00 14,7 C 14,1 C 11,3 C 84 % 1019,2 hPa 0,0 l/m 0,00 h 0,00 h 25 W/m 0,0 km/h (0 Bft) 96,33 %
15.06.2023 07:00 15,5 C 16,0 C 12,6 C 84 % 1019,5 hPa 0,0 l/m 0,33 h 0,00 h 106 W/m 0,0 km/h (0 Bft) 99,43 %
15.06.2023 08:00 19,2 C 23,2 C 16,0 C 74 % 1019,6 hPa 0,0 l/m 1,00 h 0,00 h 372 W/m 0,0 km/h (0 Bft) 96,94 %
15.06.2023 09:00 23,8 C 28,6 C 21,4 C 58 % 1019,7 hPa 0,0 l/m 1,00 h 0,00 h 539 W/m 0,0 km/h (0 Bft) 98,44 %
15.06.2023 10:00 25,1 C 27,8 C 24,9 C 51 % 1019,7 hPa 0,0 l/m 1,00 h 0,00 h 686 W/m 3,3 km/h (1 Bft) 96,02 %
15.06.2023 11:00 26,2 C 28,0 C 23,2 C 47 % 1019,4 hPa 0,0 l/m 0,70 h 0,00 h 641 W/m 7,2 km/h (2 Bft) 98,65 %
15.06.2023 12:00 25,9 C 27,7 C 25,1 C 47 % 1019,3 hPa 0,0 l/m 0,37 h 0,00 h 505 W/m 8,5 km/h (2 Bft) 97,42 %
15.06.2023 13:00 27,2 C 31,6 C 28,3 C 43 % 1019,1 hPa 0,0 l/m 0,75 h 0,00 h 821 W/m 8,0 km/h (2 Bft) 96,43 %
15.06.2023 14:00 26,7 C 30,2 C 23,0 C 43 % 1018,7 hPa 0,0 l/m 0,63 h 0,00 h 687 W/m 10,1 km/h (2 Bft) 98,31 %
15.06.2023 15:00 26,7 C 28,2 C 22,5 C 42 % 1018,3 hPa 0,0 l/m 0,37 h 0,00 h 428 W/m 9,1 km/h (2 Bft) 97,94 %
15.06.2023 16:00 27,4 C 30,0 C 23,2 C 42 % 1018,0 hPa 0,0 l/m 0,65 h 0,00 h 516 W/m 12,3 km/h (3 Bft) 94,88 %
15.06.2023 17:00 27,7 C 30,1 C 23,5 C 41 % 1017,8 hPa 0,0 l/m 0,67 h 0,00 h 429 W/m 10,0 km/h (2 Bft) 97,48 %
15.06.2023 18:00 28,0 C 32,1 C 24,3 C 41 % 1017,4 hPa 0,0 l/m 0,93 h 0,00 h 440 W/m 12,4 km/h (3 Bft) 97,27 %
15.06.2023 19:00 27,1 C 28,5 C 22,5 C 43 % 1017,5 hPa 0,0 l/m 1,05 h 0,00 h 256 W/m 9,8 km/h (2 Bft) 96,37 %
15.06.2023 20:00 25,0 C 24,0 C 20,0 C 46 % 1017,7 hPa 0,0 l/m 0,00 h 0,00 h 47 W/m 5,5 km/h (1 Bft) 97,85 %
15.06.2023 21:00 23,9 C 22,1 C 18,4 C 51 % 1017,8 hPa 0,0 l/m 0,00 h 0,00 h 16 W/m 1,1 km/h (0 Bft) 97,93 %
15.06.2023 22:00 21,9 C 19,5 C 16,2 C 60 % 1018,2 hPa 0,0 l/m 0,00 h 0,00 h 0 W/m 0,4 km/h (0 Bft) 97,54 %
15.06.2023 23:00 19,7 C 17,7 C 14,5 C 67 % 1018,4 hPa 0,0 l/m 0,00 h 0,00 h 0 W/m 0,2 km/h (0 Bft) 97,66 %
16.06.2023 00:00 18,3 C 17,5 C 14,2 C 65 % 1018,6 hPa 0,0 l/m 0,00 h 0,00 h 0 W/m 3,2 km/h (1 Bft) 96,75 %
16.06.2023 01:00 17,9 C 16,5 C 13,6 C 67 % 1018,6 hPa 0,0 l/m 0,00 h 0,00 h 0 W/m 0,3 km/h (0 Bft) 97,65 %
16.06.2023 02:00 17,0 C 15,4 C 12,5 C 73 % 1018,5 hPa 0,0 l/m 0,00 h 0,00 h 0 W/m 0,0 km/h (0 Bft) 99,15 %
16.06.2023 03:00 15,9 C 14,4 C 11,7 C 77 % 1018,4 hPa 0,0 l/m 0,00 h 0,00 h 0 W/m 0,0 km/h (0 Bft) 93,89 %
16.06.2023 04:00 15,4 C 14,4 C 11,7 C 76 % 1018,4 hPa 0,0 l/m 0,00 h 0,00 h 0 W/m 0,0 km/h (0 Bft) 97,71 %
16.06.2023 05:00 15,3 C 14,2 C 11,3 C 75 % 1018,3 hPa 0,0 l/m 0,00 h 0,00 h 9 W/m 0,0 km/h (0 Bft) 98,15 %
16.06.2023 06:00 15,0 C 14,1 C 11,1 C 78 % 1018,5 hPa 0,0 l/m 0,00 h 0,00 h 24 W/m 0,0 km/h (0 Bft) 98,53 %
16.06.2023 07:00 15,5 C 15,8 C 12,4 C 80 % 1018,6 hPa 0,0 l/m 0,33 h 0,00 h 106 W/m 0,0 km/h (0 Bft) 93,51 %
16.06.2023 08:00 19,6 C 23,7 C 16,3 C 65 % 1019,0 hPa 0,0 l/m 1,00 h 0,00 h 384 W/m 0,0 km/h (0 Bft) 98,50 %
16.06.2023 09:00 23,7 C 28,0 C 21,0 C 53 % 1019,3 hPa 0,0 l/m 1,00 h 0,00 h 545 W/m 0,0 km/h (0 Bft) 98,36 %
16.06.2023 10:00 25,1 C 27,4 C 24,7 C 45 % 1019,1 hPa 0,0 l/m 1,00 h 0,00 h 692 W/m 4,7 km/h (1 Bft) 97,37 %
16.06.2023 11:00 26,3 C 29,2 C 24,4 C 41 % 1018,9 hPa 0,0 l/m 1,00 h 0,00 h 815 W/m 8,8 km/h (2 Bft) 97,72 %
16.06.2023 12:00 26,6 C 29,2 C 26,3 C 40 % 1018,7 hPa 0,0 l/m 1,00 h 0,00 h 692 W/m 9,0 km/h (2 Bft) 96,73 %
16.06.2023 13:00 27,5 C 32,6 C 30,8 C 38 % 1018,4 hPa 0,0 l/m 1,00 h 0,00 h 923 W/m 10,0 km/h (2 Bft) 98,72 %
16.06.2023 14:00 28,5 C 33,6 C 24,3 C 37 % 1018,1 hPa 0,0 l/m 1,00 h 0,00 h 902 W/m 10,5 km/h (2 Bft) 96,65 %
16.06.2023 15:00 28,8 C 32,7 C 23,5 C 38 % 1017,7 hPa 0,0 l/m 0,97 h 0,00 h 853 W/m 15,2 km/h (3 Bft) 97,96 %
16.06.2023 16:00 28,9 C 32,6 C 23,9 C 37 % 1017,3 hPa 0,0 l/m 1,00 h 0,00 h 751 W/m 11,7 km/h (2 Bft) 97,01 %
16.06.2023 17:00 28,9 C 32,4 C 24,3 C 37 % 1016,9 hPa 0,0 l/m 0,90 h 0,00 h 552 W/m 10,0 km/h (2 Bft) 96,50 %
16.06.2023 18:00 28,8 C 32,7 C 24,7 C 38 % 1016,5 hPa 0,0 l/m 1,00 h 0,00 h 430 W/m 9,3 km/h (2 Bft) 99,25 %
16.06.2023 19:00 27,9 C 29,4 C 23,5 C 40 % 1016,4 hPa 0,0 l/m 0,95 h 0,00 h 264 W/m 12,9 km/h (3 Bft) 97,97 %
16.06.2023 20:00 25,7 C 24,8 C 21,3 C 44 % 1016,4 hPa 0,0 l/m 0,08 h 0,00 h 49 W/m 11,6 km/h (2 Bft) 98,54 %
16.06.2023 21:00 24,0 C 22,7 C 19,5 C 47 % 1016,7 hPa 0,0 l/m 0,00 h 0,00 h 10 W/m 7,2 km/h (2 Bft) 97,98 %
16.06.2023 22:00 22,6 C 21,4 C 18,3 C 50 % 1017,0 hPa 0,0 l/m 0,00 h 0,00 h 0 W/m 5,1 km/h (1 Bft) 97,24 %
16.06.2023 23:00 21,3 C 19,8 C 16,9 C 54 % 1017,1 hPa 0,0 l/m 0,00 h 0,00 h 0 W/m 1,8 km/h (1 Bft) 96,86 %
17.06.2023 00:00 20,0 C 18,2 C 15,6 C 59 % 1017,0 hPa 0,0 l/m 0,00 h 0,00 h 0 W/m 0,6 km/h (0 Bft) 99,53 %
17.06.2023 01:00 18,3 C 16,2 C 13,7 C 67 % 1016,8 hPa 0,0 l/m 0,00 h 0,00 h 0 W/m 0,0 km/h (0 Bft) 96,23 %
17.06.2023 02:00 16,8 C 15,2 C 12,6 C 72 % 1016,7 hPa 0,0 l/m 0,00 h 0,00 h 0 W/m 0,0 km/h (0 Bft) 97,43 %
17.06.2023 03:00 15,8 C 14,2 C 11,7 C 75 % 1016,5 hPa 0,0 l/m 0,00 h 0,00 h 0 W/m 0,1 km/h (0 Bft) 96,44 %
17.06.2023 04:00 15,0 C 13,4 C 10,9 C 79 % 1016,4 hPa 0,0 l/m 0,00 h 0,00 h 0 W/m 0,0 km/h (0 Bft) 98,52 %
17.06.2023 05:00 14,3 C 12,8 C 10,4 C 82 % 1016,3 hPa 0,0 l/m 0,00 h 0,00 h 11 W/m 0,1 km/h (0 Bft) 96,80 %
17.06.2023 06:00 14,1 C 13,5 C 10,7 C 83 % 1016,2 hPa 0,0 l/m 0,00 h 0,00 h 27 W/m 0,4 km/h (0 Bft) 97,17 %
17.06.2023 07:00 15,1 C 15,4 C 12,2 C 82 % 1016,3 hPa 0,0 l/m 0,30 h 0,00 h 110 W/m 1,5 km/h (1 Bft) 97,30 %
17.06.2023 08:00 19,2 C 23,5 C 16,4 C 70 % 1016,4 hPa 0,0 l/m 1,00 h 0,00 h 389 W/m 2,9 km/h (1 Bft) 97,00 %
17.06.2023 09:00 23,6 C 28,1 C 21,4 C 55 % 1016,4 hPa 0,0 l/m 1,00 h 0,00 h 552 W/m 3,8 km/h (1 Bft) 97,23 %
17.06.2023 10:00 24,9 C 27,4 C 25,8 C 47 % 1016,2 hPa 0,0 l/m 1,00 h 0,00 h 703 W/m 6,7 km/h (2 Bft) 98,82 %
17.06.2023 11:00 26,2 C 28,6 C 25,0 C 45 % 1016,0 hPa 0,0 l/m 1,00 h 0,00 h 822 W/m 7,5 km/h (2 Bft) 95,22 %
17.06.2023 12:00 27,5 C 31,2 C 31,3 C 42 % 1015,9 hPa 0,0 l/m 0,98 h 0,00 h 901 W/m 9,9 km/h (2 Bft) 98,57 %
17.06.2023 13:00 27,7 C 32,5 C 32,7 C 41 % 1015,5 hPa 0,0 l/m 1,00 h 0,00 h 928 W/m 11,3 km/h (2 Bft) 98,08 %
17.06.2023 14:00 28,9 C 34,3 C 26,1 C 38 % 1015,0 hPa 0,0 l/m 1,00 h 0,00 h 914 W/m 9,8 km/h (2 Bft) 96,16 %
17.06.2023 15:00 29,3 C 33,5 C 25,0 C 36 % 1014,6 hPa 0,0 l/m 1,00 h 0,00 h 834 W/m 8,6 km/h (2 Bft) 97,91 %
17.06.2023 16:00 29,8 C 33,0 C 25,2 C 35 % 1014,3 hPa 0,0 l/m 0,98 h 0,00 h 668 W/m 9,9 km/h (2 Bft) 97,82 %
17.06.2023 17:00 29,9 C 33,0 C 25,4 C 34 % 1014,1 hPa 0,0 l/m 0,90 h 0,00 h 522 W/m 9,1 km/h (2 Bft) 97,91 %
17.06.2023 18:00 29,3 C 30,9 C 24,7 C 36 % 1013,8 hPa 0,0 l/m 0,98 h 0,00 h 299 W/m 5,8 km/h (2 Bft) 99,51 %
17.06.2023 19:00 28,7 C 28,5 C 23,6 C 37 % 1013,8 hPa 0,0 l/m 0,83 h 0,00 h 187 W/m 4,4 km/h (1 Bft) 96,39 %
17.06.2023 20:00 27,1 C 25,1 C 21,5 C 44 % 1013,9 hPa 0,0 l/m 0,00 h 0,00 h 63 W/m 1,3 km/h (1 Bft) 96,78 %
17.06.2023 21:00 24,4 C 22,0 C 18,9 C 54 % 1014,0 hPa 0,0 l/m 0,00 h 0,00 h 17 W/m 0,0 km/h (0 Bft) 97,88 %
17.06.2023 22:00 21,8 C 19,6 C 17,0 C 61 % 1014,1 hPa 0,0 l/m 0,00 h 0,00 h 0 W/m 0,1 km/h (0 Bft) 97,35 %
17.06.2023 23:00 20,0 C 18,2 C 15,5 C 67 % 1014,0 hPa 0,0 l/m 0,00 h 0,00 h 0 W/m 0,0 km/h (0 Bft) 97,73 %
18.06.2023 00:00 18,8 C 17,4 C 14,7 C 70 % 1014,0 hPa 0,0 l/m 0,00 h 0,00 h 0 W/m 0,1 km/h (0 Bft) 98,69 %
18.06.2023 01:00 17,9 C 16,7 C 13,9 C 75 % 1013,9 hPa 0,0 l/m 0,00 h 0,00 h 0 W/m 0,0 km/h (0 Bft) 96,11 %
18.06.2023 02:00 17,7 C 16,9 C 14,0 C 77 % 1013,6 hPa 0,0 l/m 0,00 h 0,00 h 0 W/m 0,1 km/h (0 Bft) 98,52 %
18.06.2023 03:00 17,3 C 16,0 C 13,1 C 79 % 1013,4 hPa 0,0 l/m 0,00 h 0,00 h 0 W/m 0,0 km/h (0 Bft) 97,73 %
18.06.2023 04:00 16,8 C 15,7 C 12,9 C 81 % 1013,1 hPa 0,0 l/m 0,00 h 0,00 h 0 W/m 0,7 km/h (0 Bft) 97,77 %
18.06.2023 05:00 16,5 C 15,8 C 12,9 C 81 % 1013,1 hPa 0,0 l/m 0,00 h 0,00 h 13 W/m 1,8 km/h (1 Bft) 96,54 %
18.06.2023 06:00 17,0 C 16,9 C 13,9 C 78 % 1013,4 hPa 0,0 l/m 0,00 h 0,00 h 64 W/m 3,8 km/h (1 Bft) 98,95 %
18.06.2023 07:00 18,3 C 18,5 C 15,2 C 73 % 1013,4 hPa 0,0 l/m 0,07 h 0,00 h 112 W/m 4,1 km/h (1 Bft) 97,30 %
18.06.2023 08:00 20,3 C 21,5 C 17,1 C 67 % 1013,6 hPa 0,0 l/m 0,63 h 0,00 h 251 W/m 5,6 km/h (1 Bft) 97,75 %
18.06.2023 09:00 22,6 C 24,0 C 19,6 C 59 % 1013,7 hPa 0,0 l/m 0,73 h 0,00 h 350 W/m 7,6 km/h (2 Bft) 97,28 %
18.06.2023 10:00 24,4 C 25,6 C 21,6 C 55 % 1013,7 hPa 0,0 l/m 0,40 h 0,00 h 383 W/m 6,5 km/h (2 Bft) 97,73 %
18.06.2023 11:00 26,2 C 27,9 C 23,1 C 50 % 1013,6 hPa 0,0 l/m 0,77 h 0,00 h 575 W/m 6,1 km/h (2 Bft) 97,98 %
18.06.2023 12:00 28,6 C 32,4 C 29,9 C 43 % 1013,2 hPa 0,0 l/m 0,97 h 0,00 h 834 W/m 8,7 km/h (2 Bft) 97,21 %
18.06.2023 13:00 29,3 C 31,1 C 27,4 C 42 % 1012,7 hPa 0,0 l/m 0,57 h 0,00 h 541 W/m 5,1 km/h (1 Bft) 97,44 %
18.06.2023 14:00 29,1 C 28,2 C 24,5 C 42 % 1012,2 hPa 0,0 l/m 0,00 h 0,00 h 210 W/m 3,9 km/h (1 Bft) 98,22 %
18.06.2023 15:00 28,0 C 27,2 C 23,2 C 45 % 1011,6 hPa 0,0 l/m 0,00 h 0,00 h 201 W/m 3,1 km/h (1 Bft) 95,82 %
18.06.2023 16:00 27,7 C 26,9 C 23,0 C 49 % 1011,2 hPa 0,0 l/m 0,00 h 0,00 h 159 W/m 3,2 km/h (1 Bft) 99,57 %
18.06.2023 17:00 27,1 C 26,2 C 22,4 C 54 % 1010,9 hPa 0,0 l/m 0,00 h 0,00 h 119 W/m 2,5 km/h (1 Bft) 96,94 %
18.06.2023 18:00 26,4 C 25,7 C 21,2 C 59 % 1010,4 hPa 0,0 l/m 0,00 h 0,00 h 127 W/m 3,9 km/h (1 Bft) 97,25 %
18.06.2023 19:00 26,2 C 25,7 C 21,2 C 58 % 1009,9 hPa 0,0 l/m 0,00 h 0,00 h 72 W/m 4,1 km/h (1 Bft) 98,21 %
18.06.2023 20:00 25,6 C 25,0 C 20,7 C 57 % 1009,5 hPa 0,0 l/m 0,00 h 0,00 h 53 W/m 6,3 km/h (2 Bft) 97,57 %
18.06.2023 21:00 24,7 C 23,7 C 19,9 C 58 % 1009,4 hPa 0,0 l/m 0,00 h 0,00 h 15 W/m 4,8 km/h (1 Bft) 96,33 %
18.06.2023 22:00 24,0 C 23,0 C 19,3 C 60 % 1009,5 hPa 0,0 l/m 0,00 h 0,00 h 0 W/m 3,6 km/h (1 Bft) 99,65 %
18.06.2023 23:00 24,3 C 23,6 C 19,9 C 60 % 1010,0 hPa 0,0 l/m 0,00 h 0,00 h 0 W/m 14,6 km/h (3 Bft) 96,38 %
Min-Datum _ 17.06.23 17.06.23 17.06.23 17.06.23 18.06.23 - - - - 12.06.23 17.06.23
_ Min-Zeit 06:08 04:44 05:30 17:00 21:00 - - - - 00:00 03:00
Minimum _ 13,9 C 12,8 C 10,0 C 32 % 1009,2 hPa - - - - 0,0 km/h (0 Bft) 53,33 %
Max-Datum _ 12.06.23 12.06.23 12.06.23 15.06.23 15.06.23 12.06.23 14.06.23 12.06.23 18.06.23 18.06.23 12.06.23
_ Max-Zeit 15:08 14:44 13:16 06:54 09:18 00:00 18:12 00:00 13:42 23:40 00:22
Maximum _ 32,5 C 37,8 C 35,0 C 85 % 1019,8 hPa 0,0 l/m 0,08 h 0,00 h 1114 W/m 48,3 km/h
SO (6 Bft)
100,00 %
Durchschnitt _ 22,8 C 23,8 C 19,5 C 57 % 1015,5 hPa #0,0 l/m #71:38 h #0 min. 421 W/m 5,6 km/h (1 Bft) 97,47 %
© 2023 W. Hausmann